createdAt,value
2022-10-30T00:00:38.015Z,101530.94
2022-10-30T00:03:40.420Z,101513.75
2022-10-30T00:06:42.492Z,101549.41
2022-10-30T00:09:44.541Z,101523.53
2022-10-30T00:12:46.615Z,101547.22
2022-10-30T00:15:50.431Z,101544.50
2022-10-30T00:18:52.501Z,101534.38
2022-10-30T00:24:56.868Z,101523.06
2022-10-30T00:27:58.951Z,101522.56
2022-10-30T00:31:02.673Z,101503.19
2022-10-30T00:34:04.987Z,101512.00
2022-10-30T00:37:07.034Z,101521.78
2022-10-30T00:40:15.361Z,101530.13
2022-10-30T00:43:41.271Z,101531.94
2022-10-30T00:46:44.999Z,101508.63
2022-10-30T00:50:08.074Z,101536.22
2022-10-30T00:53:22.004Z,101539.09
2022-10-30T00:56:24.658Z,101515.28
2022-10-30T00:59:30.716Z,101518.00
2022-10-30T01:02:33.318Z,101525.59
2022-10-30T01:05:36.399Z,101514.59
2022-10-30T01:08:39.291Z,101510.56
2022-10-30T01:11:41.600Z,101510.06
2022-10-30T01:14:53.518Z,101506.00
2022-10-30T01:18:01.856Z,101522.91
2022-10-30T01:21:18.925Z,101517.66
2022-10-30T01:24:26.718Z,101509.22
2022-10-30T01:27:40.864Z,101514.63
2022-10-30T01:30:58.307Z,101504.97
2022-10-30T01:34:22.662Z,101504.97
2022-10-30T01:37:52.479Z,101513.25
2022-10-30T01:40:54.941Z,101508.34
2022-10-30T01:44:03.063Z,101516.81
2022-10-30T01:47:43.390Z,101496.19
2022-10-30T01:51:09.189Z,101507.88
2022-10-30T01:54:32.560Z,101515.66
2022-10-30T01:57:57.705Z,101508.03
2022-10-30T02:01:01.420Z,101515.53
2022-10-30T02:04:05.060Z,101495.91
2022-10-30T02:07:07.621Z,101499.28
2022-10-30T02:10:16.382Z,101503.19
2022-10-30T02:13:19.072Z,101484.38
2022-10-30T02:16:22.144Z,101493.34
2022-10-30T02:19:24.469Z,101498.94
2022-10-30T02:22:26.754Z,101505.41
2022-10-30T02:25:29.824Z,101497.28
2022-10-30T02:28:32.026Z,101521.78
2022-10-30T02:31:33.996Z,101505.38
2022-10-30T02:34:36.968Z,101511.13
2022-10-30T02:37:41.160Z,101509.75
2022-10-30T02:40:44.848Z,101533.66
2022-10-30T02:43:47.052Z,101521.97
2022-10-30T02:46:49.171Z,101513.53
2022-10-30T02:49:51.863Z,101494.03
2022-10-30T02:52:55.408Z,101514.22
2022-10-30T02:56:04.136Z,101519.59
2022-10-30T02:59:06.683Z,101530.97
2022-10-30T03:02:08.724Z,101508.78
2022-10-30T03:05:11.226Z,101511.31
2022-10-30T03:08:15.160Z,101528.09
2022-10-30T03:11:18.869Z,101527.53
2022-10-30T03:14:21.893Z,101522.50
2022-10-30T03:17:24.113Z,101530.13
2022-10-30T03:20:26.157Z,101523.69
2022-10-30T03:23:29.911Z,101522.84
2022-10-30T03:26:31.988Z,101536.59
2022-10-30T03:29:40.969Z,101541.31
2022-10-30T03:32:44.088Z,101529.13
2022-10-30T03:35:46.313Z,101539.47
2022-10-30T03:38:48.544Z,101508.00
2022-10-30T03:41:54.064Z,101519.31
2022-10-30T03:44:56.185Z,101530.81
2022-10-30T03:48:01.746Z,101531.00
2022-10-30T03:51:04.358Z,101533.53
2022-10-30T03:54:06.799Z,101512.91
2022-10-30T03:57:09.032Z,101521.84
2022-10-30T04:00:35.971Z,101515.09
2022-10-30T04:03:38.956Z,101505.94
2022-10-30T04:06:43.767Z,101507.78
2022-10-30T04:09:56.538Z,101509.47
2022-10-30T04:13:06.759Z,101493.41
2022-10-30T04:16:14.462Z,101506.09
2022-10-30T04:19:19.714Z,101490.91
2022-10-30T04:22:22.136Z,101494.59
2022-10-30T04:25:24.873Z,101496.31
2022-10-30T04:28:29.288Z,101510.34
2022-10-30T04:31:32.147Z,101514.41
2022-10-30T04:34:34.422Z,101497.16
2022-10-30T04:37:37.575Z,101507.47
2022-10-30T04:40:41.631Z,101536.22
2022-10-30T04:43:44.323Z,101520.69
2022-10-30T04:46:46.869Z,101506.44
2022-10-30T04:49:50.191Z,101516.72
2022-10-30T04:53:05.184Z,101521.25
2022-10-30T04:56:08.866Z,101509.03
2022-10-30T04:59:15.021Z,101507.38
2022-10-30T05:02:22.349Z,101507.28
2022-10-30T05:05:24.598Z,101512.91
2022-10-30T05:08:28.045Z,101514.09
2022-10-30T05:11:31.186Z,101508.78
2022-10-30T05:14:33.827Z,101531.50
2022-10-30T05:17:36.832Z,101506.34
2022-10-30T05:20:39.272Z,101531.75
2022-10-30T05:23:41.815Z,101533.13
2022-10-30T05:26:45.628Z,101538.72
2022-10-30T05:29:47.703Z,101538.91
2022-10-30T05:32:51.365Z,101535.22
2022-10-30T05:35:56.174Z,101527.59
2022-10-30T05:39:02.013Z,101552.06
2022-10-30T05:42:20.187Z,101555.59
2022-10-30T05:45:23.043Z,101520.78
2022-10-30T05:48:25.896Z,101539.56
2022-10-30T05:51:36.488Z,101556.63
2022-10-30T05:54:43.229Z,101567.47
2022-10-30T05:57:56.501Z,101562.91
2022-10-30T06:01:30.283Z,101567.66
2022-10-30T06:04:39.798Z,101511.19
2022-10-30T06:07:46.361Z,101576.16
2022-10-30T06:10:48.834Z,101571.91
2022-10-30T06:14:00.875Z,101566.50
2022-10-30T06:17:28.674Z,101551.63
2022-10-30T06:20:56.609Z,101582.81
2022-10-30T06:24:01.515Z,101565.66
2022-10-30T06:27:18.292Z,101582.13
2022-10-30T06:30:21.808Z,101583.97
2022-10-30T06:33:26.884Z,101587.34
2022-10-30T06:36:30.393Z,101534.38
2022-10-30T06:39:33.704Z,101570.25
2022-10-30T06:42:54.791Z,101567.53
2022-10-30T06:49:16.678Z,101592.06
2022-10-30T06:52:23.294Z,101603.78
2022-10-30T06:55:42.414Z,101576.31
2022-10-30T06:59:19.689Z,101580.16
2022-10-30T07:02:28.963Z,101571.38
2022-10-30T07:05:34.564Z,101548.03
2022-10-30T07:08:53.728Z,101552.28
2022-10-30T07:11:57.337Z,101577.44
2022-10-30T07:15:09.798Z,101535.66
2022-10-30T07:18:44.651Z,101538.81
2022-10-30T07:21:47.131Z,101532.34
2022-10-30T07:24:52.894Z,101535.41
2022-10-30T07:28:16.870Z,101562.56
2022-10-30T07:31:41.855Z,101542.25
2022-10-30T07:34:45.869Z,101546.78
2022-10-30T07:38:07.171Z,101544.06
2022-10-30T07:41:20.699Z,101525.28
2022-10-30T07:44:30.159Z,101541.97
2022-10-30T07:47:54.474Z,101554.66
2022-10-30T07:51:10.213Z,101548.88
2022-10-30T07:54:13.323Z,101522.00
2022-10-30T07:57:15.646Z,101503.56
2022-10-30T08:00:40.395Z,101533.25
2022-10-30T08:04:14.155Z,101523.75
2022-10-30T08:07:21.043Z,101516.88
2022-10-30T08:10:23.912Z,101529.22
2022-10-30T08:15:01.994Z,101518.47
2022-10-30T08:17:15.646Z,101481.09
2022-10-30T08:20:23.582Z,101523.94
2022-10-30T08:26:57.548Z,101495.41
2022-10-30T08:30:02.958Z,101486.88
2022-10-30T08:33:13.611Z,101520.94
2022-10-30T08:36:32.861Z,101519.19
2022-10-30T08:39:35.095Z,101518.78
2022-10-30T08:43:26.769Z,101514.03
2022-10-30T08:46:32.407Z,101517.69
2022-10-30T08:49:50.956Z,101513.44
2022-10-30T08:52:57.054Z,101498.63
2022-10-30T08:55:59.643Z,101498.59
2022-10-30T08:59:12.973Z,101502.88
2022-10-30T09:02:19.805Z,101478.25
2022-10-30T09:06:17.128Z,101502.44
2022-10-30T09:09:49.758Z,101486.03
2022-10-30T09:13:03.418Z,101483.34
2022-10-30T09:16:07.285Z,101478.81
2022-10-30T09:19:17.633Z,101468.56
2022-10-30T09:22:22.087Z,101464.66
2022-10-30T09:25:24.948Z,101469.63
2022-10-30T09:28:39.690Z,101475.31
2022-10-30T09:32:10.813Z,101460.41
2022-10-30T09:35:24.165Z,101471.13
2022-10-30T09:38:26.262Z,101460.84
2022-10-30T09:41:53.994Z,101455.19
2022-10-30T09:45:30.084Z,101457.28
2022-10-30T09:48:45.589Z,101451.38
2022-10-30T09:51:54.618Z,101452.88
2022-10-30T09:55:34.115Z,101439.00
2022-10-30T09:59:08.839Z,101446.25
2022-10-30T10:02:17.611Z,101447.09
2022-10-30T10:05:51.907Z,101447.91
2022-10-30T10:09:45.317Z,101451.88
2022-10-30T10:13:34.169Z,101440.75
2022-10-30T10:16:41.025Z,101435.50
2022-10-30T10:20:08.991Z,101439.88
2022-10-30T10:23:59.326Z,101426.84
2022-10-30T10:27:27.115Z,101431.50
2022-10-30T10:30:52.780Z,101436.97
2022-10-30T10:34:00.474Z,101433.28
2022-10-30T10:37:28.895Z,101427.06
2022-10-30T10:40:42.885Z,101430.00
2022-10-30T10:43:47.862Z,101426.31
2022-10-30T10:47:10.565Z,101410.88
2022-10-30T10:50:47.628Z,101418.34
2022-10-30T10:54:28.805Z,101422.94
2022-10-30T10:57:35.019Z,101416.19
2022-10-30T11:00:38.283Z,101412.84
2022-10-30T11:04:31.153Z,101411.75
2022-10-30T11:07:48.595Z,101409.50
2022-10-30T11:10:59.329Z,101397.59
2022-10-30T11:14:03.679Z,101387.75
2022-10-30T11:17:40.922Z,101413.69
2022-10-30T11:20:48.536Z,101407.59
2022-10-30T11:23:51.470Z,101407.03
2022-10-30T11:27:48.092Z,101405.81
2022-10-30T11:30:52.974Z,101407.94
2022-10-30T11:35:15.562Z,101404.34
2022-10-30T11:38:27.178Z,101379.56
2022-10-30T11:41:30.170Z,101384.38
2022-10-30T11:44:47.091Z,101393.44
2022-10-30T11:47:49.147Z,101408.13
2022-10-30T11:50:53.270Z,101407.06
2022-10-30T11:53:55.449Z,101406.63
2022-10-30T11:56:59.205Z,101407.69
2022-10-30T12:00:05.714Z,101403.28
2022-10-30T12:03:36.316Z,101409.34
2022-10-30T12:06:46.951Z,101404.06
2022-10-30T12:09:49.702Z,101408.28
2022-10-30T12:12:52.268Z,101386.19
2022-10-30T12:16:06.709Z,101384.69
2022-10-30T12:19:18.913Z,101397.28
2022-10-30T12:22:32.583Z,101377.56
2022-10-30T12:25:34.638Z,101398.09
2022-10-30T12:28:37.468Z,101380.22
2022-10-30T12:31:46.397Z,101377.25
2022-10-30T12:35:03.073Z,101393.19
2022-10-30T12:38:15.611Z,101384.34
2022-10-30T12:41:31.922Z,101397.78
2022-10-30T12:44:48.622Z,101389.63
2022-10-30T12:47:53.527Z,101393.63
2022-10-30T12:51:30.298Z,101385.44
2022-10-30T12:55:10.622Z,101383.31
2022-10-30T12:58:46.407Z,101388.97
2022-10-30T13:01:59.853Z,101383.03
2022-10-30T13:05:30.204Z,101385.13
2022-10-30T13:08:44.975Z,101390.56
2022-10-30T13:12:10.953Z,101380.06
2022-10-30T13:15:33.860Z,101393.72
2022-10-30T13:18:36.381Z,101390.34
2022-10-30T13:22:06.542Z,101384.91
2022-10-30T13:25:38.662Z,101378.31
2022-10-30T13:28:49.741Z,101363.38
2022-10-30T13:32:15.370Z,101384.16
2022-10-30T13:35:28.911Z,101385.63
2022-10-30T13:38:51.377Z,101361.84
2022-10-30T13:42:18.411Z,101357.50
2022-10-30T13:46:12.176Z,101375.66
2022-10-30T13:49:31.338Z,101367.78
2022-10-30T13:52:38.761Z,101371.38
2022-10-30T13:55:42.273Z,101371.16
2022-10-30T13:58:44.597Z,101375.13
2022-10-30T14:02:04.479Z,101361.63
2022-10-30T14:05:35.273Z,101360.78
2022-10-30T14:08:55.349Z,101364.31
2022-10-30T14:12:21.140Z,101356.97
2022-10-30T14:15:30.107Z,101363.31
2022-10-30T14:18:44.756Z,101347.16
2022-10-30T14:21:57.499Z,101346.28
2022-10-30T14:25:02.486Z,101344.69
2022-10-30T14:28:05.667Z,101356.44
2022-10-30T14:31:42.121Z,101343.13
2022-10-30T14:34:54.440Z,101354.69
2022-10-30T14:38:37.430Z,101351.81
2022-10-30T14:41:55.749Z,101342.22
2022-10-30T14:45:09.781Z,101362.31
2022-10-30T14:48:48.482Z,101357.91
2022-10-30T14:52:15.020Z,101344.78
2022-10-30T14:55:28.642Z,101362.69
2022-10-30T14:58:37.670Z,101357.47
2022-10-30T15:01:55.097Z,101356.91
2022-10-30T15:05:36.691Z,101370.19
2022-10-30T15:09:08.235Z,101366.03
2022-10-30T15:12:20.269Z,101371.31
2022-10-30T15:15:25.657Z,101354.66
2022-10-30T15:18:30.831Z,101373.13
2022-10-30T15:21:43.499Z,101372.25
2022-10-30T15:24:46.805Z,101357.75
2022-10-30T15:27:58.537Z,101349.81
2022-10-30T15:31:29.830Z,101379.66
2022-10-30T15:34:35.953Z,101381.97
2022-10-30T15:38:03.460Z,101378.00
2022-10-30T15:41:41.482Z,101366.88
2022-10-30T15:45:05.915Z,101383.53
2022-10-30T15:48:19.790Z,101380.38
2022-10-30T15:51:24.577Z,101370.31
2022-10-30T15:54:28.491Z,101379.16
2022-10-30T15:58:02.338Z,101395.13
2022-10-30T16:01:05.271Z,101394.91
2022-10-30T16:04:18.632Z,101380.63
2022-10-30T16:07:23.950Z,101401.00
2022-10-30T16:10:36.389Z,101394.47
2022-10-30T16:13:46.459Z,101395.31
2022-10-30T16:16:52.160Z,101394.47
2022-10-30T16:20:04.183Z,101403.69
2022-10-30T16:23:07.934Z,101390.19
2022-10-30T16:26:26.418Z,101374.22
2022-10-30T16:29:34.670Z,101407.59
2022-10-30T16:32:36.950Z,101400.63
2022-10-30T16:35:52.997Z,101411.75
2022-10-30T16:39:00.116Z,101433.75
2022-10-30T16:42:02.593Z,101415.00
2022-10-30T16:45:11.787Z,101436.41
2022-10-30T16:48:30.053Z,101428.81
2022-10-30T16:51:33.454Z,101423.09
2022-10-30T16:54:48.419Z,101435.25
2022-10-30T16:57:58.874Z,101442.75
2022-10-30T17:01:40.215Z,101459.66
2022-10-30T17:04:55.516Z,101435.41
2022-10-30T17:08:01.892Z,101468.25
2022-10-30T17:11:36.770Z,101444.25
2022-10-30T17:14:46.882Z,101456.44
2022-10-30T17:18:11.308Z,101462.31
2022-10-30T17:21:18.473Z,101445.09
2022-10-30T17:24:31.012Z,101446.84
2022-10-30T17:27:52.438Z,101421.94
2022-10-30T17:30:56.984Z,101428.25
2022-10-30T17:35:03.287Z,101439.06
2022-10-30T17:38:06.404Z,101425.41
2022-10-30T17:41:14.854Z,101436.38
2022-10-30T17:44:25.262Z,101437.22
2022-10-30T17:47:31.323Z,101414.66
2022-10-30T17:50:35.813Z,101432.59
2022-10-30T17:53:39.892Z,101439.31
2022-10-30T18:00:43.971Z,101430.75
2022-10-30T18:03:46.110Z,101441.06
2022-10-30T18:06:56.094Z,101378.25
2022-10-30T18:09:58.323Z,101413.06
2022-10-30T18:13:00.869Z,101411.38
2022-10-30T18:16:07.664Z,101416.47
2022-10-30T18:19:12.458Z,101410.66
2022-10-30T18:22:32.704Z,101431.34
2022-10-30T18:25:36.559Z,101428.19
2022-10-30T18:28:38.623Z,101412.31
2022-10-30T18:31:41.956Z,101416.72
2022-10-30T18:34:43.929Z,101424.66
2022-10-30T18:37:45.952Z,101412.19
2022-10-30T18:40:48.491Z,101440.78
2022-10-30T18:43:51.708Z,101421.34
2022-10-30T18:46:56.452Z,101431.09
2022-10-30T18:50:27.532Z,101424.06
2022-10-30T18:53:34.989Z,101422.56
2022-10-30T18:56:38.059Z,101412.84
2022-10-30T18:59:40.564Z,101415.13
2022-10-30T19:02:43.070Z,101441.34
2022-10-30T19:05:50.273Z,101445.88
2022-10-30T19:08:52.321Z,101433.44
2022-10-30T19:11:56.854Z,101442.84
2022-10-30T19:15:00.671Z,101457.53
2022-10-30T19:18:03.325Z,101448.66
2022-10-30T19:21:11.488Z,101461.22
2022-10-30T19:24:18.036Z,101429.22
2022-10-30T19:27:21.215Z,101455.72
2022-10-30T19:30:24.424Z,101456.47
2022-10-30T19:33:29.193Z,101462.38
2022-10-30T19:36:34.599Z,101467.78
2022-10-30T19:39:36.799Z,101449.94
2022-10-30T19:42:40.721Z,101442.91
2022-10-30T19:45:43.022Z,101448.56
2022-10-30T19:48:57.307Z,101463.06
2022-10-30T19:52:00.759Z,101470.94
2022-10-30T19:55:03.803Z,101426.44
2022-10-30T19:58:26.070Z,101466.47
2022-10-30T20:01:28.516Z,101463.47
2022-10-30T20:04:30.734Z,101443.06
2022-10-30T20:07:32.913Z,101458.91
2022-10-30T20:10:38.401Z,101460.41
2022-10-30T20:13:41.053Z,101455.91
2022-10-30T20:16:43.257Z,101444.00
2022-10-30T20:19:46.487Z,101451.97
2022-10-30T20:22:48.682Z,101436.78
2022-10-30T20:25:53.062Z,101461.34
2022-10-30T20:28:55.575Z,101440.75
2022-10-30T20:31:58.014Z,101456.28
2022-10-30T20:35:05.125Z,101434.59
2022-10-30T20:38:17.839Z,101456.47
2022-10-30T20:41:23.465Z,101469.78
2022-10-30T20:44:26.648Z,101446.81
2022-10-30T20:47:29.434Z,101449.22
2022-10-30T20:50:34.257Z,101466.75
2022-10-30T20:53:36.501Z,101447.09
2022-10-30T20:56:38.754Z,101458.31
2022-10-30T20:59:40.829Z,101457.38
2022-10-30T21:02:43.646Z,101467.13
2022-10-30T21:05:46.400Z,101465.44
2022-10-30T21:08:48.553Z,101458.88
2022-10-30T21:11:50.504Z,101452.22
2022-10-30T21:14:53.143Z,101439.63
2022-10-30T21:17:55.240Z,101479.47
2022-10-30T21:21:05.829Z,101452.84
2022-10-30T21:24:11.058Z,101431.75
2022-10-30T21:27:13.137Z,101448.34
2022-10-30T21:30:15.200Z,101432.50
2022-10-30T21:33:17.759Z,101438.66
2022-10-30T21:36:20.772Z,101450.19
2022-10-30T21:39:24.025Z,101442.66
2022-10-30T21:45:33.242Z,101476.19
2022-10-30T21:48:35.952Z,101448.50
2022-10-30T21:51:41.923Z,101449.69
2022-10-30T21:54:45.861Z,101462.91
2022-10-30T21:57:47.895Z,101456.31
2022-10-30T22:00:51.329Z,101474.59
2022-10-30T22:03:53.509Z,101463.03
2022-10-30T22:06:55.523Z,101471.09
2022-10-30T22:09:57.579Z,101467.91
2022-10-30T22:12:59.896Z,101472.97
2022-10-30T22:16:04.033Z,101470.63
2022-10-30T22:19:10.146Z,101477.06
2022-10-30T22:22:17.993Z,101467.81
2022-10-30T22:25:21.060Z,101474.75
2022-10-30T22:28:23.842Z,101466.97
2022-10-30T22:31:28.967Z,101484.78
2022-10-30T22:34:31.255Z,101468.25
2022-10-30T22:37:36.996Z,101470.75
2022-10-30T22:40:39.902Z,101456.41
2022-10-30T22:43:44.314Z,101458.16
2022-10-30T22:46:50.055Z,101473.03
2022-10-30T22:49:52.743Z,101459.91
2022-10-30T22:52:57.915Z,101461.09
2022-10-30T22:56:01.076Z,101460.47
2022-10-30T22:59:07.314Z,101458.94
2022-10-30T23:02:10.082Z,101469.59
2022-10-30T23:05:13.328Z,101479.78
2022-10-30T23:08:16.493Z,101436.81
2022-10-30T23:11:18.834Z,101472.19
2022-10-30T23:14:21.195Z,101451.19
2022-10-30T23:17:23.476Z,101477.19
2022-10-30T23:20:25.849Z,101472.13
2022-10-30T23:23:28.540Z,101477.56
2022-10-30T23:26:35.101Z,101479.59
2022-10-30T23:29:37.285Z,101472.84
2022-10-30T23:32:39.323Z,101485.75
2022-10-30T23:35:42.154Z,101477.63
2022-10-30T23:38:44.295Z,101484.09
2022-10-30T23:41:46.687Z,101452.16
2022-10-30T23:44:49.258Z,101474.16
2022-10-30T23:47:51.423Z,101476.50
2022-10-30T23:50:54.773Z,101459.09
2022-10-30T23:53:57.956Z,101464.72
2022-10-30T23:57:01.252Z,101481.16
